createdAt,value
2023-06-21T00:02:04.611Z,100985.25
2023-06-21T00:04:32.433Z,100987.03
2023-06-21T00:07:02.175Z,100980.88
2023-06-21T00:09:29.929Z,100976.47
2023-06-21T00:11:57.656Z,100988.91
2023-06-21T00:14:25.360Z,100996.88
2023-06-21T00:16:53.080Z,101006.63
2023-06-21T00:19:20.823Z,101016.41
2023-06-21T00:21:48.549Z,101024.38
2023-06-21T00:24:17.742Z,101020.16
2023-06-21T00:26:45.445Z,101016.47
2023-06-21T00:29:13.188Z,101020.16
2023-06-21T00:31:40.925Z,101026.31
2023-06-21T00:34:08.983Z,101032.56
2023-06-21T00:36:43.103Z,101037.09
2023-06-21T00:39:11.671Z,101036.16
2023-06-21T00:41:40.727Z,101044.13
2023-06-21T00:44:09.399Z,101039.75
2023-06-21T00:46:37.174Z,101053.88
2023-06-21T00:49:05.987Z,101054.88
2023-06-21T00:51:34.449Z,101059.25
2023-06-21T00:54:02.483Z,101056.59
2023-06-21T00:56:30.296Z,101056.59
2023-06-21T00:58:59.396Z,101063.72
2023-06-21T01:01:27.706Z,101085.88
2023-06-21T01:03:55.512Z,101088.53
2023-06-21T01:06:26.333Z,101085.88
2023-06-21T01:08:57.425Z,101101.09
2023-06-21T01:11:26.707Z,101086.09
2023-06-21T01:14:04.352Z,101087.13
2023-06-21T01:16:35.417Z,101090.66
2023-06-21T01:19:03.202Z,101080.03
2023-06-21T01:21:31.034Z,101078.28
2023-06-21T01:24:15.706Z,101080.16
2023-06-21T01:26:54.810Z,101076.56
2023-06-21T01:29:24.061Z,101062.44
2023-06-21T01:31:54.483Z,101051.75
2023-06-21T01:34:22.769Z,101050.91
2023-06-21T01:36:50.548Z,101039.41
2023-06-21T01:39:18.676Z,101046.63
2023-06-21T01:41:47.248Z,101051.06
2023-06-21T01:44:17.307Z,101047.59
2023-06-21T01:46:46.520Z,101044.19
2023-06-21T01:49:14.405Z,101049.56
2023-06-21T01:51:42.562Z,101057.53
2023-06-21T01:54:10.435Z,101059.41
2023-06-21T01:56:39.371Z,101062.06
2023-06-21T01:59:07.123Z,101061.19
2023-06-21T02:01:34.974Z,101064.84
2023-06-21T02:04:04.205Z,101073.75
2023-06-21T02:06:32.625Z,101086.22
2023-06-21T02:09:01.373Z,101088.06
2023-06-21T02:11:29.198Z,101089.91
2023-06-21T02:13:56.991Z,101105.00
2023-06-21T02:16:27.764Z,101098.06
2023-06-21T02:18:55.488Z,101095.53
2023-06-21T02:21:24.857Z,101099.97
2023-06-21T02:23:52.602Z,101096.63
2023-06-21T02:26:20.330Z,101090.53
2023-06-21T02:28:48.163Z,101087.09
2023-06-21T02:31:16.004Z,101091.63
2023-06-21T02:33:45.913Z,101084.75
2023-06-21T02:36:14.855Z,101095.34
2023-06-21T02:38:43.966Z,101089.25
2023-06-21T02:41:11.727Z,101084.00
2023-06-21T02:43:39.430Z,101087.59
2023-06-21T02:46:07.229Z,101089.31
2023-06-21T02:48:35.027Z,101086.75
2023-06-21T02:51:02.756Z,101088.63
2023-06-21T02:53:30.589Z,101089.56
2023-06-21T02:55:59.988Z,101091.41
2023-06-21T02:58:27.769Z,101083.56
2023-06-21T03:00:55.542Z,101085.31
2023-06-21T03:03:23.448Z,101095.06
2023-06-21T03:05:51.360Z,101097.00
2023-06-21T03:08:19.135Z,101098.88
2023-06-21T03:10:46.840Z,101087.56
2023-06-21T03:13:15.929Z,101097.31
2023-06-21T03:15:43.784Z,101106.28
2023-06-21T03:18:11.501Z,101108.19
2023-06-21T03:20:39.295Z,101117.16
2023-06-21T03:23:07.038Z,101106.59
2023-06-21T03:25:34.763Z,101125.22
2023-06-21T03:28:02.529Z,101125.38
2023-06-21T03:30:31.835Z,101122.81
2023-06-21T03:32:59.870Z,101131.75
2023-06-21T03:35:30.232Z,101134.47
2023-06-21T03:37:57.983Z,101137.13
2023-06-21T03:40:26.154Z,101137.16
2023-06-21T03:42:54.553Z,101139.09
2023-06-21T03:45:22.328Z,101141.75
2023-06-21T03:47:51.512Z,101154.13
2023-06-21T03:50:19.279Z,101149.75
2023-06-21T03:52:47.120Z,101151.53
2023-06-21T03:55:14.916Z,101145.41
2023-06-21T03:57:42.672Z,101151.63
2023-06-21T04:00:12.279Z,101154.34
2023-06-21T04:02:40.301Z,101147.25
2023-06-21T04:05:10.748Z,101157.00
2023-06-21T04:07:39.351Z,101155.13
2023-06-21T04:10:07.849Z,101169.19
2023-06-21T04:12:35.766Z,101171.84
2023-06-21T04:15:04.800Z,101169.19
2023-06-21T04:17:32.555Z,101173.63
2023-06-21T04:20:00.327Z,101182.44
2023-06-21T04:22:30.873Z,101185.00
2023-06-21T04:24:58.618Z,101193.81
2023-06-21T04:27:26.362Z,101192.88
2023-06-21T04:29:54.900Z,101196.41
2023-06-21T04:32:22.767Z,101187.50
2023-06-21T04:34:50.538Z,101193.69
2023-06-21T04:37:20.256Z,101198.09
2023-06-21T04:39:49.606Z,101194.50
2023-06-21T04:42:21.347Z,101200.59
2023-06-21T04:44:50.386Z,101208.56
2023-06-21T04:47:18.317Z,101206.75
2023-06-21T04:49:46.065Z,101208.56
2023-06-21T04:52:13.889Z,101211.22
2023-06-21T04:54:41.630Z,101213.69
2023-06-21T04:57:13.673Z,101223.41
2023-06-21T04:59:41.540Z,101224.25
2023-06-21T05:02:09.356Z,101227.03
2023-06-21T05:04:37.145Z,101232.13
2023-06-21T05:07:06.545Z,101233.84
2023-06-21T05:09:34.298Z,101237.31
2023-06-21T05:12:02.004Z,101235.44
2023-06-21T05:14:31.091Z,101247.75
2023-06-21T05:16:59.040Z,101252.16
2023-06-21T05:19:26.750Z,101255.63
2023-06-21T05:21:54.581Z,101248.56
2023-06-21T05:24:22.505Z,101244.97
2023-06-21T05:26:50.247Z,101235.22
2023-06-21T05:29:18.116Z,101243.91
2023-06-21T05:31:47.241Z,101249.06
2023-06-21T05:34:14.961Z,101250.78
2023-06-21T05:36:42.732Z,101256.88
2023-06-21T05:39:10.527Z,101262.19
2023-06-21T05:41:38.343Z,101249.78
2023-06-21T05:44:06.229Z,101248.91
2023-06-21T05:46:34.082Z,101253.25
2023-06-21T05:49:03.532Z,101250.59
2023-06-21T05:51:31.379Z,101253.97
2023-06-21T05:53:59.432Z,101260.97
2023-06-21T05:56:28.223Z,101256.50
2023-06-21T05:58:55.968Z,101257.13
2023-06-21T06:01:25.530Z,101272.03
2023-06-21T06:03:53.682Z,101277.22
2023-06-21T06:06:22.835Z,101263.84
2023-06-21T06:08:50.731Z,101259.38
2023-06-21T06:11:18.445Z,101274.34
2023-06-21T06:13:46.165Z,101284.00
2023-06-21T06:16:14.490Z,101287.53
2023-06-21T06:18:42.333Z,101291.84
2023-06-21T06:21:10.094Z,101289.13
2023-06-21T06:23:39.290Z,101293.56
2023-06-21T06:26:08.802Z,101300.56
2023-06-21T06:28:39.048Z,101314.53
2023-06-21T06:31:06.794Z,101297.56
2023-06-21T06:33:34.590Z,101316.13
2023-06-21T06:36:02.332Z,101319.69
2023-06-21T06:38:30.079Z,101317.03
2023-06-21T06:40:59.285Z,101328.56
2023-06-21T06:43:27.072Z,101329.41
2023-06-21T06:45:54.855Z,101321.28
2023-06-21T06:48:22.733Z,101323.00
2023-06-21T06:50:50.596Z,101328.31
2023-06-21T06:53:18.443Z,101336.19
2023-06-21T06:55:46.139Z,101329.19
2023-06-21T06:58:15.247Z,101332.69
2023-06-21T07:00:43.172Z,101346.09
2023-06-21T07:03:11.015Z,101347.88
2023-06-21T07:05:43.318Z,101352.34
2023-06-21T07:08:11.374Z,101354.06
2023-06-21T07:10:39.110Z,101351.41
2023-06-21T07:13:07.576Z,101347.81
2023-06-21T07:15:36.747Z,101354.78
2023-06-21T07:18:04.879Z,101369.63
2023-06-21T07:20:33.450Z,101365.91
2023-06-21T07:23:01.777Z,101364.19
2023-06-21T07:25:29.680Z,101373.94
2023-06-21T07:27:57.565Z,101374.09
2023-06-21T07:30:25.510Z,101379.41
2023-06-21T07:32:54.785Z,101391.72
2023-06-21T07:35:22.538Z,101390.78
2023-06-21T07:37:50.280Z,101388.00
2023-06-21T07:40:18.019Z,101394.91
2023-06-21T07:42:45.983Z,101393.78
2023-06-21T07:45:13.936Z,101397.13
2023-06-21T07:47:42.632Z,101413.84
2023-06-21T07:50:22.025Z,101413.72
2023-06-21T07:52:50.973Z,101405.69
2023-06-21T07:55:18.916Z,101405.75
2023-06-21T07:57:46.802Z,101417.31
2023-06-21T08:00:15.127Z,101422.63
2023-06-21T08:02:45.295Z,101418.25
2023-06-21T08:05:16.031Z,101422.47
2023-06-21T08:07:43.971Z,101432.09
2023-06-21T08:10:11.854Z,101427.63
2023-06-21T08:12:39.671Z,101432.94
2023-06-21T08:15:08.453Z,101428.56
2023-06-21T08:17:36.221Z,101430.28
2023-06-21T08:20:05.028Z,101437.25
2023-06-21T08:22:34.314Z,101433.66
2023-06-21T08:25:02.046Z,101443.31
2023-06-21T08:27:29.885Z,101432.81
2023-06-21T08:29:57.641Z,101444.22
2023-06-21T08:32:25.885Z,101444.09
2023-06-21T08:34:55.158Z,101436.91
2023-06-21T08:37:26.330Z,101434.41
2023-06-21T08:39:56.661Z,101430.09
2023-06-21T08:42:24.563Z,101419.53
2023-06-21T08:44:52.402Z,101441.56
2023-06-21T08:47:20.190Z,101444.97
2023-06-21T08:49:48.074Z,101441.31
2023-06-21T08:52:19.304Z,101448.31
2023-06-21T08:54:48.611Z,101456.16
2023-06-21T08:57:19.996Z,101455.34
2023-06-21T08:59:50.211Z,101458.13
2023-06-21T09:02:22.394Z,101455.47
2023-06-21T09:04:50.971Z,101467.84
2023-06-21T09:07:18.885Z,101482.03
2023-06-21T09:09:46.777Z,101470.34
2023-06-21T09:12:16.943Z,101475.41
2023-06-21T09:14:44.712Z,101486.03
2023-06-21T09:17:12.564Z,101483.38
2023-06-21T09:19:41.258Z,101481.66
2023-06-21T09:22:09.105Z,101490.41
2023-06-21T09:24:36.843Z,101486.88
2023-06-21T09:27:05.167Z,101475.34
2023-06-21T09:29:34.310Z,101479.66
2023-06-21T09:32:03.124Z,101490.00
2023-06-21T09:34:30.953Z,101500.50
2023-06-21T09:36:58.816Z,101503.28
2023-06-21T09:39:28.746Z,101505.25
2023-06-21T09:41:56.488Z,101501.78
2023-06-21T09:44:24.644Z,101490.41
2023-06-21T09:46:58.986Z,101501.63
2023-06-21T09:49:28.039Z,101501.69
2023-06-21T09:51:55.851Z,101512.31
2023-06-21T09:54:23.711Z,101505.25
2023-06-21T09:56:51.445Z,101505.31
2023-06-21T09:59:20.490Z,101515.25
2023-06-21T10:01:51.037Z,101530.06
2023-06-21T10:04:20.195Z,101523.75
2023-06-21T10:06:51.578Z,101508.72
2023-06-21T10:09:20.023Z,101523.91
2023-06-21T10:11:50.183Z,101520.56
2023-06-21T10:14:21.970Z,101524.84
2023-06-21T10:16:51.686Z,101537.25
2023-06-21T10:19:22.544Z,101537.31
2023-06-21T10:21:52.817Z,101535.59
2023-06-21T10:24:21.378Z,101544.22
2023-06-21T10:26:50.566Z,101554.75
2023-06-21T10:29:18.362Z,101553.63
2023-06-21T10:31:47.614Z,101558.94
2023-06-21T10:34:17.709Z,101558.13
2023-06-21T10:36:49.607Z,101549.44
2023-06-21T10:39:17.437Z,101560.22
2023-06-21T10:41:45.267Z,101550.47
2023-06-21T10:44:13.180Z,101553.88
2023-06-21T10:46:42.730Z,101554.47
2023-06-21T10:49:11.001Z,101559.78
2023-06-21T10:51:41.560Z,101571.16
2023-06-21T10:54:10.869Z,101571.16
2023-06-21T10:56:38.762Z,101580.31
2023-06-21T10:59:06.543Z,101583.78
2023-06-21T11:01:34.343Z,101579.25
2023-06-21T11:04:02.118Z,101582.56
2023-06-21T11:06:35.343Z,101579.72
2023-06-21T11:09:09.283Z,101594.53
2023-06-21T11:11:38.721Z,101593.44
2023-06-21T11:14:06.427Z,101599.75
2023-06-21T11:16:35.465Z,101595.59
2023-06-21T11:19:05.395Z,101616.97
2023-06-21T11:21:41.458Z,101616.31
2023-06-21T11:24:09.877Z,101613.50
2023-06-21T11:27:01.282Z,101609.00
2023-06-21T11:29:29.943Z,101620.41
2023-06-21T11:32:09.372Z,101630.78
2023-06-21T11:34:37.127Z,101618.28
2023-06-21T11:37:36.103Z,101627.84
2023-06-21T11:40:05.348Z,101639.28
2023-06-21T11:42:38.148Z,101627.06
2023-06-21T11:45:22.303Z,101638.53
2023-06-21T11:48:04.211Z,101648.44
2023-06-21T11:50:35.933Z,101641.41
2023-06-21T11:53:18.071Z,101653.75
2023-06-21T11:55:46.613Z,101658.22
2023-06-21T11:58:15.756Z,101647.56
2023-06-21T12:00:45.583Z,101666.19
2023-06-21T12:03:13.656Z,101664.41
2023-06-21T12:05:45.906Z,101672.31
2023-06-21T12:08:13.680Z,101660.75
2023-06-21T12:10:41.649Z,101682.88
2023-06-21T12:13:12.556Z,101677.63
2023-06-21T12:15:46.424Z,101684.59
2023-06-21T12:18:14.292Z,101685.25
2023-06-21T12:20:42.681Z,101682.53
2023-06-21T12:23:10.540Z,101689.56
2023-06-21T12:25:48.104Z,101698.34
2023-06-21T12:28:15.894Z,101693.88
2023-06-21T12:30:52.078Z,101705.38
2023-06-21T12:33:19.823Z,101706.22
2023-06-21T12:35:47.558Z,101714.19
2023-06-21T12:38:15.815Z,101715.13
2023-06-21T12:40:58.692Z,101723.06
2023-06-21T12:43:39.166Z,101725.66
2023-06-21T12:46:08.717Z,101739.81
2023-06-21T12:48:37.085Z,101737.06
2023-06-21T12:51:05.094Z,101748.50
2023-06-21T12:53:33.626Z,101740.47
2023-06-21T12:56:05.566Z,101751.94
2023-06-21T12:58:33.663Z,101759.03
2023-06-21T13:01:02.985Z,101749.22
2023-06-21T13:03:32.181Z,101756.34
2023-06-21T13:06:00.151Z,101758.13
2023-06-21T13:08:28.083Z,101760.75
2023-06-21T13:10:56.434Z,101766.06
2023-06-21T13:13:24.151Z,101765.94
2023-06-21T13:15:52.079Z,101765.00
2023-06-21T13:18:20.261Z,101758.81
2023-06-21T13:20:49.460Z,101765.00
2023-06-21T13:23:17.268Z,101775.56
2023-06-21T13:25:45.025Z,101771.91
2023-06-21T13:28:12.751Z,101778.94
2023-06-21T13:30:40.469Z,101783.31
2023-06-21T13:33:08.440Z,101786.84
2023-06-21T13:35:36.250Z,101792.00
2023-06-21T13:38:05.444Z,101795.31
2023-06-21T13:40:33.188Z,101793.34
2023-06-21T13:43:00.926Z,101792.34
2023-06-21T13:45:28.759Z,101795.66
2023-06-21T13:47:57.114Z,101795.59
2023-06-21T13:50:25.012Z,101799.84
2023-06-21T13:52:52.845Z,101789.78
2023-06-21T13:55:22.240Z,101794.94
2023-06-21T13:57:53.648Z,101791.44
2023-06-21T14:00:21.972Z,101796.78
2023-06-21T14:02:53.195Z,101798.34
2023-06-21T14:05:23.026Z,101794.47
2023-06-21T14:07:51.126Z,101797.72
2023-06-21T14:10:18.906Z,101796.72
2023-06-21T14:12:47.987Z,101790.25
2023-06-21T14:15:15.710Z,101802.91
2023-06-21T14:17:44.001Z,101802.22
2023-06-21T14:20:12.571Z,101804.56
2023-06-21T14:22:40.294Z,101801.03
2023-06-21T14:25:09.685Z,101789.56
2023-06-21T14:27:37.539Z,101800.38
2023-06-21T14:30:07.867Z,101803.09
2023-06-21T14:32:35.805Z,101791.44
2023-06-21T14:35:03.520Z,101799.13
2023-06-21T14:37:31.293Z,101808.25
2023-06-21T14:39:59.076Z,101802.44
2023-06-21T14:42:27.121Z,101796.94
2023-06-21T14:44:54.907Z,101794.66
2023-06-21T14:47:24.111Z,101795.72
2023-06-21T14:49:53.291Z,101787.78
2023-06-21T14:52:21.170Z,101793.88
2023-06-21T14:54:50.557Z,101791.91
2023-06-21T14:57:18.385Z,101799.16
2023-06-21T14:59:46.574Z,101790.63
2023-06-21T15:02:14.442Z,101785.41
2023-06-21T15:04:43.528Z,101783.41
2023-06-21T15:07:15.160Z,101796.78
2023-06-21T15:09:42.883Z,101798.50
2023-06-21T15:12:13.560Z,101798.63
2023-06-21T15:14:41.468Z,101801.72
2023-06-21T15:17:09.480Z,101807.91
2023-06-21T15:19:37.641Z,101805.41
2023-06-21T15:22:07.230Z,101811.13
2023-06-21T15:24:34.984Z,101802.53
2023-06-21T15:27:02.725Z,101802.63
2023-06-21T15:29:30.442Z,101797.22
2023-06-21T15:31:58.152Z,101799.47
2023-06-21T15:34:25.922Z,101809.69
2023-06-21T15:36:53.737Z,101802.16
2023-06-21T15:39:22.856Z,101798.19
2023-06-21T15:41:51.019Z,101809.38
2023-06-21T15:44:18.771Z,101798.28
2023-06-21T15:46:47.381Z,101801.22
2023-06-21T15:49:16.298Z,101803.94
2023-06-21T15:51:44.177Z,101803.09
2023-06-21T15:54:11.943Z,101802.38
2023-06-21T15:56:41.286Z,101797.03
2023-06-21T15:59:09.216Z,101799.81
2023-06-21T16:01:37.061Z,101806.00
2023-06-21T16:04:05.526Z,101809.25
2023-06-21T16:06:33.400Z,101809.63
2023-06-21T16:09:01.148Z,101810.34
2023-06-21T16:11:28.971Z,101806.72
2023-06-21T16:13:58.058Z,101801.41
2023-06-21T16:16:25.818Z,101804.00
2023-06-21T16:18:55.673Z,101802.63
2023-06-21T16:21:23.423Z,101817.69
2023-06-21T16:23:51.804Z,101814.75
2023-06-21T16:26:21.754Z,101807.50
2023-06-21T16:28:50.322Z,101811.25
2023-06-21T16:31:19.445Z,101812.06
2023-06-21T16:33:47.178Z,101816.75
2023-06-21T16:36:14.896Z,101817.91
2023-06-21T16:38:42.670Z,101812.09
2023-06-21T16:41:10.478Z,101811.44
2023-06-21T16:43:38.198Z,101816.94
2023-06-21T16:46:06.078Z,101820.50
2023-06-21T16:48:35.214Z,101819.72
2023-06-21T16:51:02.957Z,101821.59
2023-06-21T16:53:31.295Z,101816.25
2023-06-21T16:55:59.037Z,101818.91
2023-06-21T16:58:26.748Z,101818.00
2023-06-21T17:00:54.517Z,101825.91
2023-06-21T17:03:22.485Z,101823.34
2023-06-21T17:05:51.986Z,101820.81
2023-06-21T17:08:19.700Z,101825.25
2023-06-21T17:10:47.422Z,101819.84
2023-06-21T17:13:15.122Z,101823.22
2023-06-21T17:15:43.015Z,101823.97
2023-06-21T17:18:12.286Z,101829.03
2023-06-21T17:20:40.058Z,101827.00
2023-06-21T17:23:09.123Z,101832.88
2023-06-21T17:25:37.205Z,101837.00
2023-06-21T17:28:05.238Z,101830.66
2023-06-21T17:30:33.048Z,101831.47
2023-06-21T17:33:00.963Z,101827.84
2023-06-21T17:35:29.489Z,101833.09
2023-06-21T17:37:57.426Z,101832.16
2023-06-21T17:40:26.560Z,101834.75
2023-06-21T17:42:54.309Z,101830.19
2023-06-21T17:45:22.100Z,101837.19
2023-06-21T17:47:50.123Z,101844.31
2023-06-21T17:50:18.014Z,101848.72
2023-06-21T17:52:45.834Z,101853.09
2023-06-21T17:55:13.644Z,101856.56
2023-06-21T17:57:43.180Z,101855.63
2023-06-21T18:00:11.880Z,101850.28
2023-06-21T18:02:39.907Z,101853.91
2023-06-21T18:05:13.023Z,101855.69
2023-06-21T18:07:40.838Z,101853.91
2023-06-21T18:10:09.347Z,101853.03
2023-06-21T18:12:37.099Z,101864.38
2023-06-21T18:15:07.760Z,101864.47
2023-06-21T18:17:38.203Z,101860.22
2023-06-21T18:20:07.056Z,101860.47
2023-06-21T18:22:43.296Z,101852.59
2023-06-21T18:25:11.888Z,101861.41
2023-06-21T18:27:39.722Z,101861.56
2023-06-21T18:30:10.529Z,101851.03
2023-06-21T18:32:39.334Z,101858.25
2023-06-21T18:35:09.710Z,101859.25
2023-06-21T18:37:38.373Z,101859.34
2023-06-21T18:40:07.113Z,101855.84
2023-06-21T18:42:34.963Z,101856.97
2023-06-21T18:45:02.694Z,101857.19
2023-06-21T18:47:31.979Z,101853.00
2023-06-21T18:49:59.825Z,101869.06
2023-06-21T18:52:28.592Z,101860.38
2023-06-21T18:54:56.398Z,101867.75
2023-06-21T18:57:24.808Z,101863.50
2023-06-21T18:59:52.557Z,101866.28
2023-06-21T19:02:20.359Z,101869.19
2023-06-21T19:04:51.220Z,101874.56
2023-06-21T19:07:19.124Z,101868.53
2023-06-21T19:09:46.948Z,101871.34
2023-06-21T19:12:14.774Z,101871.47
2023-06-21T19:14:43.487Z,101869.88
2023-06-21T19:17:11.251Z,101870.94
2023-06-21T19:19:39.084Z,101876.50
2023-06-21T19:22:09.865Z,101878.50
2023-06-21T19:24:37.647Z,101884.09
2023-06-21T19:27:06.050Z,101886.97
2023-06-21T19:29:33.879Z,101891.44
2023-06-21T19:32:01.683Z,101897.84
2023-06-21T19:34:29.622Z,101903.31
2023-06-21T19:36:57.391Z,101911.50
2023-06-21T19:39:26.508Z,101919.69
2023-06-21T19:41:54.309Z,101921.66
2023-06-21T19:44:22.283Z,101923.59
2023-06-21T19:46:50.664Z,101919.28
2023-06-21T19:49:19.429Z,101934.44
2023-06-21T19:51:47.284Z,101939.88
2023-06-21T19:54:19.330Z,101940.00
2023-06-21T19:56:48.463Z,101936.69
2023-06-21T19:59:16.743Z,101936.81
2023-06-21T20:01:44.625Z,101923.66
2023-06-21T20:04:12.491Z,101926.56
2023-06-21T20:06:40.272Z,101926.63
2023-06-21T20:09:08.025Z,101930.41
2023-06-21T20:11:35.807Z,101932.34
2023-06-21T20:14:05.036Z,101936.09
2023-06-21T20:16:32.797Z,101930.06
2023-06-21T20:19:01.651Z,101932.88
2023-06-21T20:21:29.420Z,101938.28
2023-06-21T20:23:57.238Z,101935.81
2023-06-21T20:26:24.999Z,101932.47
2023-06-21T20:28:52.752Z,101927.22
2023-06-21T20:31:21.953Z,101930.03
2023-06-21T20:33:49.774Z,101926.59
2023-06-21T20:36:23.182Z,101941.75
2023-06-21T20:38:51.121Z,101941.06
2023-06-21T20:41:19.005Z,101932.34
2023-06-21T20:43:46.767Z,101946.69
2023-06-21T20:46:16.999Z,101946.81
2023-06-21T20:48:46.670Z,101945.97
2023-06-21T20:51:14.476Z,101950.56
2023-06-21T20:53:44.292Z,101938.22
2023-06-21T20:56:13.895Z,101948.03
2023-06-21T20:58:41.651Z,101943.78
2023-06-21T21:01:15.079Z,101943.88
2023-06-21T21:03:43.074Z,101947.47
2023-06-21T21:06:12.352Z,101939.56
2023-06-21T21:08:40.194Z,101944.06
2023-06-21T21:11:10.312Z,101955.66
2023-06-21T21:13:39.519Z,101954.88
2023-06-21T21:16:07.382Z,101945.22
2023-06-21T21:18:35.169Z,101940.81
2023-06-21T21:21:06.359Z,101949.75
2023-06-21T21:23:35.451Z,101947.19
2023-06-21T21:26:04.173Z,101942.84
2023-06-21T21:28:32.255Z,101934.06
2023-06-21T21:31:00.056Z,101937.66
2023-06-21T21:33:27.799Z,101940.31
2023-06-21T21:35:55.570Z,101948.34
2023-06-21T21:38:24.201Z,101946.66
2023-06-21T21:40:53.289Z,101945.84
2023-06-21T21:43:21.130Z,101946.72
2023-06-21T21:45:49.870Z,101943.31
2023-06-21T21:48:17.698Z,101948.72
2023-06-21T21:50:46.289Z,101953.16
2023-06-21T21:53:14.976Z,101947.09
2023-06-21T21:55:42.873Z,101956.00
2023-06-21T21:58:14.051Z,101956.09
2023-06-21T22:00:41.766Z,101963.31
2023-06-21T22:03:09.967Z,101956.34
2023-06-21T22:05:37.984Z,101955.44
2023-06-21T22:08:06.254Z,101957.22
2023-06-21T22:10:39.095Z,101950.19
2023-06-21T22:13:11.254Z,101955.56
2023-06-21T22:15:50.386Z,101949.41
2023-06-21T22:18:24.844Z,101951.22
2023-06-21T22:20:53.630Z,101961.84
2023-06-21T22:23:21.346Z,101967.25
2023-06-21T22:25:49.084Z,101962.81
2023-06-21T22:28:16.845Z,101963.75
2023-06-21T22:30:46.125Z,101964.69
2023-06-21T22:33:13.910Z,101963.84
2023-06-21T22:35:42.123Z,101977.22
2023-06-21T22:38:09.963Z,101966.63
2023-06-21T22:40:37.680Z,101970.22
2023-06-21T22:43:05.792Z,101970.22
2023-06-21T22:45:34.584Z,101979.13
2023-06-21T22:48:08.006Z,101976.56
2023-06-21T22:50:35.975Z,101986.34
2023-06-21T22:53:05.138Z,101988.19
2023-06-21T22:55:32.916Z,101991.72
2023-06-21T22:58:01.243Z,101987.34
2023-06-21T23:00:29.337Z,102000.66
2023-06-21T23:02:57.422Z,101998.97
2023-06-21T23:05:28.618Z,101984.09
2023-06-21T23:07:56.348Z,101995.59
2023-06-21T23:10:24.139Z,101998.28
2023-06-21T23:12:51.985Z,101999.19
2023-06-21T23:15:20.323Z,101990.38
2023-06-21T23:17:48.129Z,101994.00
2023-06-21T23:20:16.952Z,101992.25
2023-06-21T23:22:47.089Z,102003.81
2023-06-21T23:25:14.988Z,101996.88
2023-06-21T23:27:43.948Z,101997.66
2023-06-21T23:30:34.512Z,101998.59
2023-06-21T23:33:00.757Z,101991.59
2023-06-21T23:35:28.512Z,101989.00
2023-06-21T23:37:58.182Z,101994.31
2023-06-21T23:40:26.261Z,101998.81
2023-06-21T23:42:55.587Z,102000.53
2023-06-21T23:45:23.368Z,101991.75
2023-06-21T23:47:51.124Z,101992.66
2023-06-21T23:50:19.016Z,101995.31
2023-06-21T23:52:46.717Z,101995.38
2023-06-21T23:55:18.217Z,101994.53
2023-06-21T23:57:45.990Z,101995.41
